X  Fermer Données météorologiques d'aviation de Metar        LEGR Granada
Température
20°C Température
13°C Point de rosée
64% Humidité



Vitesse
0 KM/H
0 MPH
0 M/S
0 KTS



Calme
N
Conditions actuelles

Mostly Sunny Mostly Sunny
Pression 1019 (hPa) - 30.09 (inHg)
Visibilité 30 (mile) - 48 (km)
Aéroport
Code de l'aéroport LEGR

Emplacement: Granada
Distance: 56 (km)

Metar:
METAR LEGR 140700Z 00000KT 9999 FEW080 20/13 Q1021

Temps: 14-06-2021 09:00 CEST